createdAt,value
2018-02-09T00:02:13.572Z,91.97
2018-02-09T00:04:41.110Z,91.50
2018-02-09T00:07:08.651Z,92.87
2018-02-09T00:09:36.200Z,94.07
2018-02-09T00:12:03.815Z,93.80
2018-02-09T00:14:31.397Z,95.87
2018-02-09T00:16:59.071Z,90.13
2018-02-09T00:19:26.591Z,89.97
2018-02-09T00:21:54.175Z,95.77
2018-02-09T00:24:21.701Z,85.07
2018-02-09T00:26:49.297Z,90.60
2018-02-09T00:29:16.851Z,87.47
2018-02-09T00:31:44.398Z,88.53
2018-02-09T00:34:11.911Z,95.20
2018-02-09T00:36:39.580Z,81.33
2018-02-09T00:39:07.252Z,91.47
2018-02-09T00:41:34.857Z,83.90
2018-02-09T00:44:02.396Z,93.80
2018-02-09T00:46:29.945Z,94.47
2018-02-09T00:48:57.535Z,92.40
2018-02-09T00:51:26.025Z,106.37
2018-02-09T00:53:53.600Z,92.20
2018-02-09T00:56:21.255Z,101.37
2018-02-09T00:58:48.832Z,85.87
2018-02-09T01:01:16.457Z,94.93
2018-02-09T01:03:44.027Z,88.67
2018-02-09T01:06:11.607Z,85.37
2018-02-09T01:08:39.130Z,86.97
2018-02-09T01:11:06.680Z,90.80
2018-02-09T01:13:34.262Z,104.20
2018-02-09T01:16:01.835Z,96.43
2018-02-09T01:18:30.405Z,94.20
2018-02-09T01:20:58.038Z,88.67
2018-02-09T01:23:25.631Z,85.50
2018-02-09T01:25:53.164Z,94.40
2018-02-09T01:28:20.742Z,86.10
2018-02-09T01:30:48.826Z,88.67
2018-02-09T01:33:16.390Z,85.57
2018-02-09T01:35:43.909Z,84.53
2018-02-09T01:38:11.472Z,92.00
2018-02-09T01:40:39.090Z,95.30
2018-02-09T01:43:06.797Z,85.50
2018-02-09T01:45:34.361Z,108.00
2018-02-09T01:48:01.991Z,95.12
2018-02-09T01:50:29.630Z,109.13
2018-02-09T01:52:57.201Z,93.60
2018-02-09T01:55:24.756Z,83.40
2018-02-09T01:57:52.279Z,83.33
2018-02-09T02:00:19.986Z,90.90
2018-02-09T02:02:47.524Z,90.15
2018-02-09T02:05:15.120Z,87.83
2018-02-09T02:07:42.641Z,83.40
2018-02-09T02:10:10.235Z,78.75
2018-02-09T02:12:37.990Z,87.77
2018-02-09T02:15:05.594Z,90.07
2018-02-09T02:17:33.177Z,91.10
2018-02-09T02:20:00.762Z,87.27
2018-02-09T02:22:28.326Z,85.33
2018-02-09T02:24:55.985Z,87.00
2018-02-09T02:27:23.506Z,81.00
2018-02-09T02:29:51.037Z,87.87
2018-02-09T02:32:18.577Z,89.10
2018-02-09T02:34:46.100Z,89.30
2018-02-09T02:37:13.781Z,88.80
2018-02-09T02:39:41.820Z,77.83
2018-02-09T02:42:09.410Z,81.93
2018-02-09T02:44:37.011Z,88.73
2018-02-09T02:47:04.581Z,92.20
2018-02-09T02:49:32.104Z,86.47
2018-02-09T02:51:59.642Z,85.37
2018-02-09T02:54:27.160Z,98.50
2018-02-09T02:56:54.657Z,81.80
2018-02-09T02:59:22.220Z,79.93
2018-02-09T03:01:49.732Z,89.40
2018-02-09T03:04:17.336Z,81.18
2018-02-09T03:06:46.159Z,85.97
2018-02-09T03:09:13.695Z,81.83
2018-02-09T03:11:41.452Z,75.43
2018-02-09T03:14:09.009Z,82.43
2018-02-09T03:16:36.587Z,77.33
2018-02-09T03:19:04.197Z,84.77
2018-02-09T03:21:31.747Z,88.30
2018-02-09T03:23:59.276Z,83.73
2018-02-09T03:26:26.856Z,74.77
2018-02-09T03:28:54.883Z,80.53
2018-02-09T03:31:22.475Z,82.47
2018-02-09T03:33:50.020Z,81.37
2018-02-09T03:36:17.768Z,78.35
2018-02-09T03:38:45.327Z,85.90
2018-02-09T03:41:12.871Z,84.17
2018-02-09T03:43:40.410Z,83.03
2018-02-09T03:46:08.012Z,88.37
2018-02-09T03:48:35.565Z,79.03
2018-02-09T03:51:03.160Z,87.82
2018-02-09T03:53:30.767Z,93.23
2018-02-09T03:55:58.297Z,87.43
2018-02-09T03:58:25.822Z,88.57
2018-02-09T04:00:53.453Z,97.85
2018-02-09T04:03:20.964Z,93.75
2018-02-09T04:05:48.514Z,91.53
2018-02-09T04:08:16.226Z,85.37
2018-02-09T04:10:43.771Z,83.43
2018-02-09T04:13:11.286Z,81.03
2018-02-09T04:15:38.820Z,83.63
2018-02-09T04:18:06.480Z,75.50
2018-02-09T04:20:34.025Z,82.57
2018-02-09T04:23:01.539Z,75.33
2018-02-09T04:25:29.057Z,73.93
2018-02-09T04:27:56.706Z,77.87
2018-02-09T04:30:24.297Z,90.33
2018-02-09T04:32:51.945Z,90.23
2018-02-09T04:35:19.528Z,83.35
2018-02-09T04:37:47.127Z,78.23
2018-02-09T04:40:14.645Z,90.10
2018-02-09T04:42:42.251Z,87.40
2018-02-09T04:45:09.782Z,96.97
2018-02-09T04:47:37.375Z,87.10
2018-02-09T04:50:04.905Z,83.25
2018-02-09T04:52:32.727Z,83.97
2018-02-09T04:55:00.305Z,78.87
2018-02-09T04:57:27.835Z,75.73
2018-02-09T04:59:55.390Z,81.60
2018-02-09T05:02:23.058Z,90.00
2018-02-09T05:04:50.686Z,95.47
2018-02-09T05:07:18.230Z,86.90
2018-02-09T05:09:45.752Z,88.27
2018-02-09T05:12:13.285Z,79.43
2018-02-09T05:14:40.812Z,87.90
2018-02-09T05:17:08.395Z,98.72
2018-02-09T05:19:36.015Z,94.53
2018-02-09T05:22:03.621Z,95.83
2018-02-09T05:24:31.232Z,94.97
2018-02-09T05:26:58.750Z,96.05
2018-02-09T05:29:26.351Z,94.72
2018-02-09T05:31:53.928Z,103.00
2018-02-09T05:34:21.502Z,90.03
2018-02-09T05:36:49.230Z,85.03
2018-02-09T05:39:16.730Z,96.50
2018-02-09T05:41:44.345Z,86.87
2018-02-09T05:44:12.078Z,94.70
2018-02-09T05:46:39.775Z,88.93
2018-02-09T05:49:07.291Z,86.77
2018-02-09T05:51:34.846Z,82.60
2018-02-09T05:54:02.480Z,88.00
2018-02-09T05:56:30.076Z,83.70
2018-02-09T05:58:57.692Z,79.70
2018-02-09T06:01:25.273Z,84.83
2018-02-09T06:03:52.869Z,80.70
2018-02-09T06:06:20.411Z,89.10
2018-02-09T06:08:47.961Z,83.50
2018-02-09T06:11:15.499Z,81.93
2018-02-09T06:13:43.155Z,90.27
2018-02-09T06:16:10.715Z,80.37
2018-02-09T06:18:38.246Z,88.32
2018-02-09T06:21:05.766Z,94.43
2018-02-09T06:23:33.340Z,84.47
2018-02-09T06:26:00.913Z,86.20
2018-02-09T06:28:28.449Z,79.07
2018-02-09T06:30:55.970Z,77.27
2018-02-09T06:33:23.564Z,75.63
2018-02-09T06:35:51.146Z,78.60
2018-02-09T06:38:18.687Z,81.23
2018-02-09T06:40:46.282Z,78.73
2018-02-09T06:43:13.820Z,81.87
2018-02-09T06:45:41.412Z,84.70
2018-02-09T06:48:08.960Z,84.83
2018-02-09T06:50:36.597Z,79.00
2018-02-09T06:53:04.261Z,75.63
2018-02-09T06:55:31.787Z,85.67
2018-02-09T06:57:59.350Z,87.30
2018-02-09T07:00:26.872Z,75.83
2018-02-09T07:02:54.520Z,85.83
2018-02-09T07:05:22.150Z,82.57
2018-02-09T07:07:49.773Z,84.23
2018-02-09T07:10:17.317Z,78.93
2018-02-09T07:12:44.900Z,76.17
2018-02-09T07:15:12.506Z,87.53
2018-02-09T07:17:40.035Z,75.65
2018-02-09T07:20:07.561Z,76.27
2018-02-09T07:22:35.101Z,74.03
2018-02-09T07:25:02.637Z,81.43
2018-02-09T07:27:30.178Z,67.37
2018-02-09T07:29:57.875Z,73.47
2018-02-09T07:32:25.413Z,75.87
2018-02-09T07:34:52.955Z,67.07
2018-02-09T07:37:20.506Z,71.27
2018-02-09T07:39:48.166Z,74.97
2018-02-09T07:42:15.857Z,73.63
2018-02-09T07:44:43.407Z,75.77
2018-02-09T07:47:11.004Z,71.17
2018-02-09T07:49:38.553Z,67.43
2018-02-09T07:52:06.207Z,88.77
2018-02-09T07:54:33.725Z,78.90
2018-02-09T07:57:01.272Z,79.77
2018-02-09T07:59:28.820Z,66.20
2018-02-09T08:01:56.573Z,77.03
2018-02-09T08:04:24.122Z,66.20
2018-02-09T08:06:51.681Z,59.50
2018-02-09T08:09:19.307Z,67.77
2018-02-09T08:11:47.072Z,70.40
2018-02-09T08:14:14.651Z,66.90
2018-02-09T08:16:42.185Z,70.32
2018-02-09T08:19:09.826Z,59.80
2018-02-09T08:21:37.343Z,68.13
2018-02-09T08:24:04.950Z,56.77
2018-02-09T08:26:32.570Z,61.30
2018-02-09T08:29:00.125Z,56.53
2018-02-09T08:31:27.646Z,63.10
2018-02-09T08:33:55.167Z,67.53
2018-02-09T08:36:22.688Z,64.70
2018-02-09T08:38:50.301Z,58.13
2018-02-09T08:41:18.045Z,65.03
2018-02-09T08:43:45.612Z,65.93
2018-02-09T08:46:13.185Z,68.13
2018-02-09T08:48:40.775Z,65.63
2018-02-09T08:51:08.285Z,65.17
2018-02-09T08:53:35.891Z,58.53
2018-02-09T08:56:03.496Z,67.90
2018-02-09T08:58:31.111Z,59.73
2018-02-09T09:00:58.725Z,68.12
2018-02-09T09:03:26.386Z,67.37
2018-02-09T09:05:53.916Z,65.90
2018-02-09T09:08:21.472Z,73.00
2018-02-09T09:10:49.765Z,59.15
2018-02-09T09:13:17.435Z,60.40
2018-02-09T09:15:44.977Z,67.77
2018-02-09T09:18:12.612Z,63.53
2018-02-09T09:20:40.208Z,68.57
2018-02-09T09:23:07.755Z,70.30
2018-02-09T09:25:35.311Z,70.73
2018-02-09T09:28:02.867Z,63.73
2018-02-09T09:30:30.427Z,66.40
2018-02-09T09:32:57.959Z,63.73
2018-02-09T09:35:25.522Z,57.50
2018-02-09T09:37:53.095Z,63.83
2018-02-09T09:40:20.686Z,63.07
2018-02-09T09:42:48.238Z,66.67
2018-02-09T09:45:16.252Z,62.67
2018-02-09T09:47:43.781Z,61.63
2018-02-09T09:50:11.441Z,64.50
2018-02-09T09:52:39.047Z,65.33
2018-02-09T09:55:06.592Z,67.40
2018-02-09T09:57:34.147Z,65.83
2018-02-09T10:00:01.738Z,64.20
2018-02-09T10:02:42.322Z,63.93
2018-02-09T10:05:09.902Z,64.30
2018-02-09T10:07:37.440Z,68.17
2018-02-09T10:10:04.975Z,71.60
2018-02-09T10:12:32.505Z,73.37
2018-02-09T10:15:00.131Z,72.43
2018-02-09T10:17:27.753Z,72.33
2018-02-09T10:19:55.300Z,74.33
2018-02-09T10:22:22.846Z,68.60
2018-02-09T10:24:50.497Z,66.60
2018-02-09T10:27:18.028Z,65.10
2018-02-09T10:29:45.602Z,70.00
2018-02-09T10:32:13.152Z,69.83
2018-02-09T10:34:40.712Z,71.43
2018-02-09T10:37:08.376Z,67.03
2018-02-09T10:39:35.902Z,65.20
2018-02-09T10:42:03.427Z,67.97
2018-02-09T10:44:30.951Z,71.90
2018-02-09T10:46:58.636Z,71.83
2018-02-09T10:49:26.179Z,63.93
2018-02-09T10:51:53.711Z,66.43
2018-02-09T10:54:21.256Z,62.57
2018-02-09T10:56:48.900Z,59.70
2018-02-09T10:59:16.516Z,65.73
2018-02-09T11:01:44.238Z,59.80
2018-02-09T11:04:11.794Z,53.50
2018-02-09T11:06:39.321Z,63.00
2018-02-09T11:09:06.848Z,62.77
2018-02-09T11:11:34.476Z,59.63
2018-02-09T11:14:02.086Z,68.20
2018-02-09T11:16:29.646Z,57.10
2018-02-09T11:18:57.197Z,74.97
2018-02-09T11:21:24.861Z,60.73
2018-02-09T11:23:52.396Z,61.97
2018-02-09T11:26:20.082Z,69.33
2018-02-09T11:28:47.710Z,54.93
2018-02-09T11:31:15.343Z,53.33
2018-02-09T11:33:43.000Z,65.37
2018-02-09T11:36:10.539Z,62.37
2018-02-09T11:38:38.116Z,59.60
2018-02-09T11:41:05.641Z,61.43
2018-02-09T11:43:33.187Z,57.30
2018-02-09T11:46:00.723Z,65.70
2018-02-09T11:48:28.311Z,58.17
2018-02-09T11:50:55.837Z,57.87
2018-02-09T11:53:23.387Z,56.60
2018-02-09T11:55:50.906Z,72.23
2018-02-09T11:58:18.608Z,57.10
2018-02-09T12:00:46.147Z,61.23
2018-02-09T12:03:13.691Z,58.93
2018-02-09T12:05:41.230Z,63.13
2018-02-09T12:08:08.790Z,55.13
2018-02-09T12:10:36.352Z,59.73
2018-02-09T12:13:03.907Z,74.63
2018-02-09T12:15:31.508Z,75.77
2018-02-09T12:17:59.364Z,59.90
2018-02-09T12:20:26.953Z,60.00
2018-02-09T12:22:54.481Z,65.93
2018-02-09T12:25:22.078Z,53.60
2018-02-09T12:27:49.726Z,66.40
2018-02-09T12:30:17.286Z,57.87
2018-02-09T12:32:44.847Z,64.00
2018-02-09T12:35:12.713Z,64.20
2018-02-09T12:37:40.271Z,56.33
2018-02-09T12:40:07.838Z,57.23
2018-02-09T12:42:35.495Z,61.33
2018-02-09T12:45:03.032Z,54.40
2018-02-09T12:47:30.600Z,57.47
2018-02-09T12:49:58.238Z,57.27
2018-02-09T12:52:25.792Z,59.37
2018-02-09T12:54:53.591Z,56.47
2018-02-09T12:57:21.157Z,55.30
2018-02-09T12:59:48.813Z,52.07
2018-02-09T13:02:16.376Z,53.37
2018-02-09T13:04:43.910Z,48.00
2018-02-09T13:07:11.508Z,50.07
2018-02-09T13:09:39.132Z,49.87
2018-02-09T13:12:06.707Z,54.83
2018-02-09T13:14:46.100Z,51.93
2018-02-09T13:17:13.671Z,49.27
2018-02-09T13:19:41.221Z,48.43
2018-02-09T13:22:08.940Z,44.47
2018-02-09T13:24:36.557Z,44.93
2018-02-09T13:27:04.121Z,40.30
2018-02-09T13:29:31.657Z,42.43
2018-02-09T13:31:59.200Z,43.37
2018-02-09T13:34:26.758Z,50.50
2018-02-09T13:40:06.506Z,43.17
2018-02-09T13:42:34.023Z,52.50
2018-02-09T13:45:01.635Z,46.13
2018-02-09T13:47:29.435Z,48.07
2018-02-09T13:49:57.038Z,47.97
2018-02-09T13:52:25.807Z,52.23
2018-02-09T13:54:53.357Z,51.93
2018-02-09T13:57:21.090Z,54.90
2018-02-09T13:59:48.671Z,39.90
2018-02-09T14:02:16.246Z,41.13
2018-02-09T14:04:43.795Z,45.53
2018-02-09T14:07:11.334Z,46.20
2018-02-09T14:09:38.913Z,44.07
2018-02-09T14:12:06.435Z,50.73
2018-02-09T14:14:34.001Z,48.90
2018-02-09T14:17:01.536Z,58.40
2018-02-09T14:19:29.100Z,55.53
2018-02-09T14:21:56.626Z,54.70
2018-02-09T14:24:24.155Z,54.80
2018-02-09T14:26:51.670Z,51.83
2018-02-09T14:29:19.194Z,53.87
2018-02-09T14:31:46.746Z,59.07
2018-02-09T14:34:14.286Z,53.13
2018-02-09T14:36:42.051Z,52.20
2018-02-09T14:39:09.560Z,55.00
2018-02-09T14:41:37.620Z,64.40
2018-02-09T14:44:05.188Z,56.13
2018-02-09T14:46:32.708Z,52.33
2018-02-09T14:49:00.248Z,56.63
2018-02-09T14:51:27.841Z,53.50
2018-02-09T14:53:55.397Z,50.40
2018-02-09T14:56:22.952Z,60.30
2018-02-09T14:58:50.738Z,59.80
2018-02-09T15:01:18.259Z,54.23
2018-02-09T15:03:45.893Z,53.63
2018-02-09T15:06:13.422Z,53.50
2018-02-09T15:08:40.986Z,55.93
2018-02-09T15:11:08.512Z,55.30
2018-02-09T15:13:36.047Z,55.80
2018-02-09T15:16:03.592Z,59.47
2018-02-09T15:18:31.122Z,57.23
2018-02-09T15:20:58.787Z,53.40
2018-02-09T15:23:26.326Z,64.37
2018-02-09T15:25:53.871Z,61.47
2018-02-09T15:28:21.411Z,52.80
2018-02-09T15:30:49.427Z,57.07
2018-02-09T15:33:17.248Z,57.30
2018-02-09T15:35:44.966Z,60.40
2018-02-09T15:38:12.506Z,59.50
2018-02-09T15:40:40.083Z,56.43
2018-02-09T15:43:07.683Z,53.83
2018-02-09T15:45:35.218Z,60.20
2018-02-09T15:48:02.822Z,52.80
2018-02-09T15:50:30.388Z,64.17
2018-02-09T15:52:57.985Z,55.70
2018-02-09T15:55:25.565Z,67.40
2018-02-09T15:57:53.157Z,64.97
2018-02-09T16:00:20.791Z,75.73
2018-02-09T16:02:48.311Z,65.37
2018-02-09T16:05:15.872Z,60.50
2018-02-09T16:07:43.399Z,57.40
2018-02-09T16:10:10.983Z,62.07
2018-02-09T16:12:38.646Z,58.17
2018-02-09T16:15:06.207Z,60.03
2018-02-09T16:17:33.768Z,57.63
2018-02-09T16:20:01.332Z,57.37
2018-02-09T16:22:28.906Z,74.13
2018-02-09T16:24:56.569Z,60.77
2018-02-09T16:27:24.217Z,62.77
2018-02-09T16:29:51.873Z,59.63
2018-02-09T16:32:19.486Z,68.67
2018-02-09T16:34:47.306Z,65.17
2018-02-09T16:37:14.893Z,74.80
2018-02-09T16:39:42.524Z,64.93
2018-02-09T16:42:10.146Z,60.33
2018-02-09T16:44:37.851Z,59.50
2018-02-09T16:47:05.537Z,74.70
2018-02-09T16:49:33.369Z,63.60
2018-02-09T16:52:01.041Z,63.67
2018-02-09T16:54:28.618Z,53.73
2018-02-09T16:56:56.311Z,59.20
2018-02-09T16:59:23.977Z,56.63
2018-02-09T17:01:51.701Z,58.70
2018-02-09T17:04:19.467Z,55.10
2018-02-09T17:06:47.091Z,58.73
2018-02-09T17:09:14.877Z,62.50
2018-02-09T17:11:42.415Z,64.27
2018-02-09T17:14:09.989Z,65.20
2018-02-09T17:16:37.759Z,64.87
2018-02-09T17:19:05.359Z,65.90
2018-02-09T17:21:32.985Z,64.10
2018-02-09T17:24:00.768Z,71.13
2018-02-09T17:26:28.351Z,77.40
2018-02-09T17:28:55.938Z,73.33
2018-02-09T17:31:23.628Z,67.60
2018-02-09T17:33:51.293Z,74.70
2018-02-09T17:36:18.900Z,61.27
2018-02-09T17:38:46.505Z,66.53
2018-02-09T17:41:14.091Z,66.60
2018-02-09T17:43:41.661Z,68.20
2018-02-09T17:46:09.392Z,76.47
2018-02-09T17:48:36.956Z,70.50
2018-02-09T17:51:04.481Z,69.43
2018-02-09T17:53:32.123Z,61.73
2018-02-09T17:55:59.692Z,59.80
2018-02-09T17:58:27.255Z,66.80
2018-02-09T18:00:54.802Z,63.87
2018-02-09T18:03:22.487Z,65.60
2018-02-09T18:05:50.076Z,66.87
2018-02-09T18:08:17.751Z,64.33
2018-02-09T18:10:45.301Z,70.07
2018-02-09T18:13:13.066Z,69.10
2018-02-09T18:15:40.794Z,64.17
2018-02-09T18:18:08.422Z,59.40
2018-02-09T18:20:35.992Z,69.50
2018-02-09T18:23:03.595Z,58.33
2018-02-09T18:25:31.177Z,56.70
2018-02-09T18:27:58.753Z,66.63
2018-02-09T18:30:26.404Z,67.60
2018-02-09T18:32:54.027Z,63.27
2018-02-09T18:35:21.663Z,59.00
2018-02-09T18:37:49.209Z,67.53
2018-02-09T18:40:16.782Z,65.30
2018-02-09T18:42:44.488Z,59.43
2018-02-09T18:45:12.056Z,54.13
2018-02-09T18:47:39.709Z,56.10
2018-02-09T18:50:07.370Z,63.57
2018-02-09T18:52:34.951Z,63.77
2018-02-09T18:55:02.546Z,59.30
2018-02-09T18:57:30.211Z,60.93
2018-02-09T18:59:57.899Z,62.67
2018-02-09T19:02:25.495Z,66.47
2018-02-09T19:04:53.107Z,66.87
2018-02-09T19:07:20.648Z,59.67
2018-02-09T19:09:48.209Z,63.10
2018-02-09T19:12:15.796Z,60.13
2018-02-09T19:14:43.410Z,56.73
2018-02-09T19:17:11.078Z,58.97
2018-02-09T19:19:38.647Z,71.03
2018-02-09T19:22:06.282Z,67.03
2018-02-09T19:24:33.871Z,74.00
2018-02-09T19:27:01.472Z,73.40
2018-02-09T19:29:29.026Z,70.20
2018-02-09T19:31:56.687Z,62.97
2018-02-09T19:34:24.263Z,57.80
2018-02-09T19:36:51.773Z,73.50
2018-02-09T19:39:19.361Z,67.23
2018-02-09T19:41:46.925Z,56.03
2018-02-09T19:44:14.498Z,63.47
2018-02-09T19:46:42.163Z,79.87
2018-02-09T19:49:09.822Z,68.83
2018-02-09T19:51:37.540Z,67.00
2018-02-09T19:54:05.138Z,68.17
2018-02-09T19:56:32.891Z,73.63
2018-02-09T19:59:00.423Z,74.93
2018-02-09T20:01:27.967Z,85.80
2018-02-09T20:03:55.511Z,75.83
2018-02-09T20:06:23.119Z,76.00
2018-02-09T20:08:50.702Z,66.27
2018-02-09T20:11:18.274Z,64.43
2018-02-09T20:13:45.976Z,66.53
2018-02-09T20:16:13.592Z,63.07
2018-02-09T20:18:41.139Z,61.63
2018-02-09T20:21:08.672Z,67.30
2018-02-09T20:23:36.367Z,63.40
2018-02-09T20:26:04.096Z,62.07
2018-02-09T20:28:31.904Z,59.60
2018-02-09T20:30:59.558Z,63.27
2018-02-09T20:33:27.164Z,67.73
2018-02-09T20:35:54.736Z,59.40
2018-02-09T20:38:22.329Z,73.77
2018-02-09T20:40:49.998Z,58.30
2018-02-09T20:43:17.661Z,63.77
2018-02-09T20:45:45.266Z,62.50
2018-02-09T20:48:12.843Z,65.67
2018-02-09T20:50:40.394Z,60.93
2018-02-09T20:53:07.941Z,68.10
2018-02-09T20:55:35.461Z,66.73
2018-02-09T20:58:03.040Z,66.83
2018-02-09T21:00:30.623Z,64.83
2018-02-09T21:02:58.187Z,67.23
2018-02-09T21:05:25.796Z,62.13
2018-02-09T21:07:53.328Z,58.40
2018-02-09T21:10:20.891Z,63.13
2018-02-09T21:12:48.426Z,61.00
2018-02-09T21:15:15.978Z,66.10
2018-02-09T21:17:43.592Z,70.40
2018-02-09T21:20:11.128Z,52.43
2018-02-09T21:22:38.812Z,51.37
2018-02-09T21:25:06.452Z,60.53
2018-02-09T21:27:34.062Z,55.10
2018-02-09T21:30:01.635Z,55.67
2018-02-09T21:32:29.184Z,55.93
2018-02-09T21:34:56.920Z,48.53
2018-02-09T21:37:24.474Z,51.17
2018-02-09T21:39:52.042Z,53.70
2018-02-09T21:42:19.609Z,61.10
2018-02-09T21:44:47.146Z,53.17
2018-02-09T21:47:14.685Z,51.03
2018-02-09T21:49:42.224Z,48.87
2018-02-09T21:52:09.823Z,46.00
2018-02-09T21:54:37.343Z,46.80
2018-02-09T21:57:04.896Z,47.93
2018-02-09T21:59:32.409Z,50.37
2018-02-09T22:01:59.971Z,48.60
2018-02-09T22:04:27.521Z,54.40
2018-02-09T22:06:55.172Z,57.33
2018-02-09T22:09:22.751Z,43.20
2018-02-09T22:11:50.312Z,44.20
2018-02-09T22:14:17.980Z,54.13
2018-02-09T22:16:45.520Z,44.90
2018-02-09T22:19:13.094Z,43.50
2018-02-09T22:21:40.677Z,43.00
2018-02-09T22:24:08.256Z,44.60
2018-02-09T22:26:35.811Z,41.17
2018-02-09T22:29:03.341Z,40.67
2018-02-09T22:31:30.868Z,47.27
2018-02-09T22:33:58.403Z,45.50
2018-02-09T22:36:25.945Z,44.40
2018-02-09T22:38:53.518Z,42.40
2018-02-09T22:41:21.047Z,47.00
2018-02-09T22:43:48.610Z,43.43
2018-02-09T22:46:16.168Z,43.90
2018-02-09T22:48:43.742Z,41.03
2018-02-09T22:51:11.268Z,42.43
2018-02-09T22:53:38.812Z,46.00
2018-02-09T22:56:06.382Z,44.37
2018-02-09T22:58:33.947Z,42.87
2018-02-09T23:01:01.509Z,46.30
2018-02-09T23:03:29.032Z,45.30
2018-02-09T23:05:56.571Z,44.07
2018-02-09T23:08:24.125Z,40.90
2018-02-09T23:10:51.697Z,44.80
2018-02-09T23:13:19.253Z,46.57
2018-02-09T23:15:46.959Z,40.47
2018-02-09T23:18:14.575Z,42.03
2018-02-09T23:20:42.102Z,40.90
2018-02-09T23:23:09.629Z,45.00
2018-02-09T23:25:37.177Z,43.23
2018-02-09T23:28:04.768Z,47.70
2018-02-09T23:30:32.286Z,42.57
2018-02-09T23:32:59.795Z,46.83
2018-02-09T23:35:27.326Z,45.23
2018-02-09T23:37:54.892Z,51.17
2018-02-09T23:40:22.604Z,51.93
2018-02-09T23:42:50.163Z,48.00
2018-02-09T23:45:17.766Z,48.30
2018-02-09T23:47:45.340Z,43.37
2018-02-09T23:50:12.890Z,40.30
2018-02-09T23:52:40.405Z,40.30
2018-02-09T23:55:07.947Z,40.67
2018-02-09T23:57:35.471Z,41.30
